sensor_id;sensor_type;location;lat;lon;timestamp;temperature;humidity
17774;DHT22;9011;33.236;-97.118;2023-07-13T00:01:23;41.00;94.00
17774;DHT22;9011;33.236;-97.118;2023-07-13T00:03:51;41.00;93.90
17774;DHT22;9011;33.236;-97.118;2023-07-13T00:06:20;40.90;93.60
17774;DHT22;9011;33.236;-97.118;2023-07-13T00:08:48;41.00;94.00
17774;DHT22;9011;33.236;-97.118;2023-07-13T00:11:17;41.10;93.30
17774;DHT22;9011;33.236;-97.118;2023-07-13T00:13:45;40.80;94.20
17774;DHT22;9011;33.236;-97.118;2023-07-13T00:16:15;40.70;93.90
17774;DHT22;9011;33.236;-97.118;2023-07-13T00:18:45;40.70;93.60
17774;DHT22;9011;33.236;-97.118;2023-07-13T00:21:13;40.50;94.40
17774;DHT22;9011;33.236;-97.118;2023-07-13T00:23:42;40.30;94.50
17774;DHT22;9011;33.236;-97.118;2023-07-13T00:26:11;40.20;94.50
17774;DHT22;9011;33.236;-97.118;2023-07-13T00:28:40;40.00;94.70
17774;DHT22;9011;33.236;-97.118;2023-07-13T00:31:09;40.00;95.30
17774;DHT22;9011;33.236;-97.118;2023-07-13T00:33:39;39.80;95.70
17774;DHT22;9011;33.236;-97.118;2023-07-13T00:36:09;39.80;95.70
17774;DHT22;9011;33.236;-97.118;2023-07-13T00:38:37;39.50;95.80
17774;DHT22;9011;33.236;-97.118;2023-07-13T00:41:06;39.30;96.00
17774;DHT22;9011;33.236;-97.118;2023-07-13T00:43:34;39.20;96.10
17774;DHT22;9011;33.236;-97.118;2023-07-13T00:46:21;39.20;96.00
17774;DHT22;9011;33.236;-97.118;2023-07-13T00:48:54;39.00;96.50
17774;DHT22;9011;33.236;-97.118;2023-07-13T00:51:29;38.90;96.50
17774;DHT22;9011;33.236;-97.118;2023-07-13T00:54:00;38.70;97.20
17774;DHT22;9011;33.236;-97.118;2023-07-13T00:56:33;38.60;97.30
17774;DHT22;9011;33.236;-97.118;2023-07-13T00:59:03;38.60;96.80
17774;DHT22;9011;33.236;-97.118;2023-07-13T01:01:32;38.30;97.20
17774;DHT22;9011;33.236;-97.118;2023-07-13T01:04:04;38.10;97.80
17774;DHT22;9011;33.236;-97.118;2023-07-13T01:06:34;38.10;97.20
17774;DHT22;9011;33.236;-97.118;2023-07-13T01:09:04;38.00;97.60
17774;DHT22;9011;33.236;-97.118;2023-07-13T01:11:33;37.90;97.40
17774;DHT22;9011;33.236;-97.118;2023-07-13T01:14:01;37.90;97.50
17774;DHT22;9011;33.236;-97.118;2023-07-13T01:16:31;37.80;97.50
17774;DHT22;9011;33.236;-97.118;2023-07-13T01:19:00;37.80;97.90
17774;DHT22;9011;33.236;-97.118;2023-07-13T01:21:33;37.80;97.40
17774;DHT22;9011;33.236;-97.118;2023-07-13T01:24:01;37.70;97.80
17774;DHT22;9011;33.236;-97.118;2023-07-13T01:26:30;37.70;97.40
17774;DHT22;9011;33.236;-97.118;2023-07-13T01:28:58;37.60;97.60
17774;DHT22;9011;33.236;-97.118;2023-07-13T01:31:26;37.50;97.60
17774;DHT22;9011;33.236;-97.118;2023-07-13T01:33:55;37.40;97.40
17774;DHT22;9011;33.236;-97.118;2023-07-13T01:36:23;37.30;97.40
17774;DHT22;9011;33.236;-97.118;2023-07-13T01:38:53;37.30;97.30
17774;DHT22;9011;33.236;-97.118;2023-07-13T01:41:22;37.30;97.80
17774;DHT22;9011;33.236;-97.118;2023-07-13T01:43:50;37.00;98.10
17774;DHT22;9011;33.236;-97.118;2023-07-13T01:46:19;36.90;98.20
17774;DHT22;9011;33.236;-97.118;2023-07-13T01:48:47;36.90;98.70
17774;DHT22;9011;33.236;-97.118;2023-07-13T01:51:16;36.70;99.20
17774;DHT22;9011;33.236;-97.118;2023-07-13T01:53:45;36.60;99.20
17774;DHT22;9011;33.236;-97.118;2023-07-13T01:56:15;36.50;99.50
17774;DHT22;9011;33.236;-97.118;2023-07-13T01:58:44;36.40;99.90
17774;DHT22;9011;33.236;-97.118;2023-07-13T02:01:13;36.40;99.90
17774;DHT22;9011;33.236;-97.118;2023-07-13T02:03:41;36.20;99.90
17774;DHT22;9011;33.236;-97.118;2023-07-13T02:06:10;36.10;99.90
17774;DHT22;9011;33.236;-97.118;2023-07-13T02:08:39;36.10;99.90
17774;DHT22;9011;33.236;-97.118;2023-07-13T02:11:08;36.00;99.90
17774;DHT22;9011;33.236;-97.118;2023-07-13T02:13:38;36.00;99.90
17774;DHT22;9011;33.236;-97.118;2023-07-13T02:16:06;35.80;99.90
17774;DHT22;9011;33.236;-97.118;2023-07-13T02:18:35;35.70;99.90
17774;DHT22;9011;33.236;-97.118;2023-07-13T02:21:04;35.70;99.90
17774;DHT22;9011;33.236;-97.118;2023-07-13T02:23:32;35.50;99.90
17774;DHT22;9011;33.236;-97.118;2023-07-13T02:26:02;35.50;99.90
17774;DHT22;9011;33.236;-97.118;2023-07-13T02:28:31;35.50;99.90
17774;DHT22;9011;33.236;-97.118;2023-07-13T02:31:07;35.30;99.90
17774;DHT22;9011;33.236;-97.118;2023-07-13T02:33:36;35.20;99.90
17774;DHT22;9011;33.236;-97.118;2023-07-13T02:36:05;35.30;99.90
17774;DHT22;9011;33.236;-97.118;2023-07-13T02:38:34;35.20;99.90
17774;DHT22;9011;33.236;-97.118;2023-07-13T02:41:03;35.10;99.90
17774;DHT22;9011;33.236;-97.118;2023-07-13T02:43:32;35.20;99.90
17774;DHT22;9011;33.236;-97.118;2023-07-13T02:46:01;35.20;99.90
17774;DHT22;9011;33.236;-97.118;2023-07-13T02:48:35;35.00;99.90
17774;DHT22;9011;33.236;-97.118;2023-07-13T02:51:04;35.00;99.90
17774;DHT22;9011;33.236;-97.118;2023-07-13T02:53:32;35.00;99.90
17774;DHT22;9011;33.236;-97.118;2023-07-13T02:56:02;35.00;99.90
17774;DHT22;9011;33.236;-97.118;2023-07-13T02:58:31;35.10;99.90
17774;DHT22;9011;33.236;-97.118;2023-07-13T03:01:07;35.10;99.90
17774;DHT22;9011;33.236;-97.118;2023-07-13T03:03:37;35.10;99.90
17774;DHT22;9011;33.236;-97.118;2023-07-13T03:06:06;35.10;99.90
17774;DHT22;9011;33.236;-97.118;2023-07-13T03:08:35;35.10;99.90
17774;DHT22;9011;33.236;-97.118;2023-07-13T03:11:05;35.10;99.90
17774;DHT22;9011;33.236;-97.118;2023-07-13T03:13:34;35.10;99.90
17774;DHT22;9011;33.236;-97.118;2023-07-13T03:16:03;35.10;99.90
17774;DHT22;9011;33.236;-97.118;2023-07-13T03:18:32;35.00;99.90
17774;DHT22;9011;33.236;-97.118;2023-07-13T03:21:02;35.00;99.90
17774;DHT22;9011;33.236;-97.118;2023-07-13T03:23:31;35.00;99.90
17774;DHT22;9011;33.236;-97.118;2023-07-13T03:26:04;35.00;99.90
17774;DHT22;9011;33.236;-97.118;2023-07-13T03:28:33;35.00;99.90
17774;DHT22;9011;33.236;-97.118;2023-07-13T03:31:04;35.00;99.90
17774;DHT22;9011;33.236;-97.118;2023-07-13T03:33:33;35.00;99.90
17774;DHT22;9011;33.236;-97.118;2023-07-13T03:36:04;35.00;99.90
17774;DHT22;9011;33.236;-97.118;2023-07-13T03:38:33;35.00;99.90
17774;DHT22;9011;33.236;-97.118;2023-07-13T03:41:01;35.00;99.90
17774;DHT22;9011;33.236;-97.118;2023-07-13T03:43:30;34.90;99.90
17774;DHT22;9011;33.236;-97.118;2023-07-13T03:46:01;34.80;99.90
17774;DHT22;9011;33.236;-97.118;2023-07-13T03:48:30;34.80;99.90
17774;DHT22;9011;33.236;-97.118;2023-07-13T03:50:59;34.70;99.90
17774;DHT22;9011;33.236;-97.118;2023-07-13T03:53:29;34.70;99.90
17774;DHT22;9011;33.236;-97.118;2023-07-13T03:55:58;34.60;99.90
17774;DHT22;9011;33.236;-97.118;2023-07-13T03:58:30;34.60;99.90
17774;DHT22;9011;33.236;-97.118;2023-07-13T04:00:59;34.70;99.90
17774;DHT22;9011;33.236;-97.118;2023-07-13T04:03:29;34.60;99.90
17774;DHT22;9011;33.236;-97.118;2023-07-13T04:06:00;34.60;99.90
17774;DHT22;9011;33.236;-97.118;2023-07-13T04:08:33;34.60;99.90
17774;DHT22;9011;33.236;-97.118;2023-07-13T04:11:04;34.60;99.90
17774;DHT22;9011;33.236;-97.118;2023-07-13T04:13:32;34.50;99.90
17774;DHT22;9011;33.236;-97.118;2023-07-13T04:16:01;34.50;99.90
17774;DHT22;9011;33.236;-97.118;2023-07-13T04:18:29;34.50;99.90
17774;DHT22;9011;33.236;-97.118;2023-07-13T04:20:58;34.50;99.90
17774;DHT22;9011;33.236;-97.118;2023-07-13T04:23:26;34.50;99.90
17774;DHT22;9011;33.236;-97.118;2023-07-13T04:25:56;34.40;99.90
17774;DHT22;9011;33.236;-97.118;2023-07-13T04:28:26;34.30;99.90
17774;DHT22;9011;33.236;-97.118;2023-07-13T04:30:54;34.30;99.90
17774;DHT22;9011;33.236;-97.118;2023-07-13T04:33:23;34.30;99.90
17774;DHT22;9011;33.236;-97.118;2023-07-13T04:35:54;34.20;99.90
17774;DHT22;9011;33.236;-97.118;2023-07-13T04:38:24;34.20;99.90
17774;DHT22;9011;33.236;-97.118;2023-07-13T04:40:58;34.20;99.90
17774;DHT22;9011;33.236;-97.118;2023-07-13T04:43:28;34.20;99.90
17774;DHT22;9011;33.236;-97.118;2023-07-13T04:45:57;34.10;99.90
17774;DHT22;9011;33.236;-97.118;2023-07-13T04:48:26;34.10;99.90
17774;DHT22;9011;33.236;-97.118;2023-07-13T04:50:57;34.00;99.90
17774;DHT22;9011;33.236;-97.118;2023-07-13T04:53:27;34.00;99.90
17774;DHT22;9011;33.236;-97.118;2023-07-13T04:55:57;34.00;99.90
17774;DHT22;9011;33.236;-97.118;2023-07-13T04:58:25;34.00;99.90
17774;DHT22;9011;33.236;-97.118;2023-07-13T05:00:59;34.00;99.90
17774;DHT22;9011;33.236;-97.118;2023-07-13T05:03:28;34.00;99.90
17774;DHT22;9011;33.236;-97.118;2023-07-13T05:05:58;33.90;99.90
17774;DHT22;9011;33.236;-97.118;2023-07-13T05:08:27;34.00;99.90
17774;DHT22;9011;33.236;-97.118;2023-07-13T05:10:58;33.90;99.90
17774;DHT22;9011;33.236;-97.118;2023-07-13T05:13:27;33.90;99.90
17774;DHT22;9011;33.236;-97.118;2023-07-13T05:15:57;33.80;99.90
17774;DHT22;9011;33.236;-97.118;2023-07-13T05:18:26;33.80;99.90
17774;DHT22;9011;33.236;-97.118;2023-07-13T05:20:58;33.70;99.90
17774;DHT22;9011;33.236;-97.118;2023-07-13T05:23:27;33.80;99.90
17774;DHT22;9011;33.236;-97.118;2023-07-13T05:25:57;33.60;99.90
17774;DHT22;9011;33.236;-97.118;2023-07-13T05:28:27;33.60;99.90
17774;DHT22;9011;33.236;-97.118;2023-07-13T05:30:56;33.50;99.90
17774;DHT22;9011;33.236;-97.118;2023-07-13T05:33:25;33.60;99.90
17774;DHT22;9011;33.236;-97.118;2023-07-13T05:35:54;33.60;99.90
17774;DHT22;9011;33.236;-97.118;2023-07-13T05:38:23;33.50;99.90
17774;DHT22;9011;33.236;-97.118;2023-07-13T05:40:57;33.40;99.90
17774;DHT22;9011;33.236;-97.118;2023-07-13T05:43:28;33.50;99.90
17774;DHT22;9011;33.236;-97.118;2023-07-13T05:45:57;33.40;99.90
17774;DHT22;9011;33.236;-97.118;2023-07-13T05:48:26;33.30;99.90
17774;DHT22;9011;33.236;-97.118;2023-07-13T05:50:54;33.30;99.90
17774;DHT22;9011;33.236;-97.118;2023-07-13T05:53:23;33.20;99.90
17774;DHT22;9011;33.236;-97.118;2023-07-13T05:55:52;33.20;99.90
17774;DHT22;9011;33.236;-97.118;2023-07-13T05:58:23;33.20;99.90
17774;DHT22;9011;33.236;-97.118;2023-07-13T06:01:00;33.20;99.90
17774;DHT22;9011;33.236;-97.118;2023-07-13T06:03:29;33.20;99.90
17774;DHT22;9011;33.236;-97.118;2023-07-13T06:05:58;33.20;99.90
17774;DHT22;9011;33.236;-97.118;2023-07-13T06:08:27;33.10;99.90
17774;DHT22;9011;33.236;-97.118;2023-07-13T06:11:03;33.00;99.90
17774;DHT22;9011;33.236;-97.118;2023-07-13T06:13:33;33.00;99.90
17774;DHT22;9011;33.236;-97.118;2023-07-13T06:16:02;33.00;99.90
17774;DHT22;9011;33.236;-97.118;2023-07-13T06:18:33;33.00;99.90
17774;DHT22;9011;33.236;-97.118;2023-07-13T06:21:05;32.90;99.90
17774;DHT22;9011;33.236;-97.118;2023-07-13T06:23:34;32.80;99.90
17774;DHT22;9011;33.236;-97.118;2023-07-13T06:26:04;32.90;99.90
17774;DHT22;9011;33.236;-97.118;2023-07-13T06:28:35;32.80;99.90
17774;DHT22;9011;33.236;-97.118;2023-07-13T06:31:05;32.80;99.90
17774;DHT22;9011;33.236;-97.118;2023-07-13T06:33:34;32.80;99.90
17774;DHT22;9011;33.236;-97.118;2023-07-13T06:36:04;32.70;99.90
17774;DHT22;9011;33.236;-97.118;2023-07-13T06:38:34;32.70;99.90
17774;DHT22;9011;33.236;-97.118;2023-07-13T06:41:03;32.60;99.90
17774;DHT22;9011;33.236;-97.118;2023-07-13T06:43:33;32.60;99.90
17774;DHT22;9011;33.236;-97.118;2023-07-13T06:46:02;32.50;99.90
17774;DHT22;9011;33.236;-97.118;2023-07-13T06:48:30;32.50;99.90
17774;DHT22;9011;33.236;-97.118;2023-07-13T06:51:03;32.50;99.90
17774;DHT22;9011;33.236;-97.118;2023-07-13T06:53:31;32.40;99.90
17774;DHT22;9011;33.236;-97.118;2023-07-13T06:56:00;32.40;99.90
17774;DHT22;9011;33.236;-97.118;2023-07-13T06:58:28;32.40;99.90
17774;DHT22;9011;33.236;-97.118;2023-07-13T07:00:58;32.40;99.90
17774;DHT22;9011;33.236;-97.118;2023-07-13T07:03:28;32.30;99.90
17774;DHT22;9011;33.236;-97.118;2023-07-13T07:06:11;32.30;99.90
17774;DHT22;9011;33.236;-97.118;2023-07-13T07:08:40;32.20;99.90
17774;DHT22;9011;33.236;-97.118;2023-07-13T07:11:11;32.20;99.90
17774;DHT22;9011;33.236;-97.118;2023-07-13T07:13:39;32.20;99.90
17774;DHT22;9011;33.236;-97.118;2023-07-13T07:16:10;32.10;99.90
17774;DHT22;9011;33.236;-97.118;2023-07-13T07:18:38;32.10;99.90
17774;DHT22;9011;33.236;-97.118;2023-07-13T07:21:07;32.10;99.90
17774;DHT22;9011;33.236;-97.118;2023-07-13T07:23:36;32.10;99.90
17774;DHT22;9011;33.236;-97.118;2023-07-13T07:26:05;32.10;99.90
17774;DHT22;9011;33.236;-97.118;2023-07-13T07:28:35;32.00;99.90
17774;DHT22;9011;33.236;-97.118;2023-07-13T07:31:04;31.90;99.90
17774;DHT22;9011;33.236;-97.118;2023-07-13T07:33:34;31.90;99.90
17774;DHT22;9011;33.236;-97.118;2023-07-13T07:36:04;31.90;99.90
17774;DHT22;9011;33.236;-97.118;2023-07-13T07:38:32;31.90;99.90
17774;DHT22;9011;33.236;-97.118;2023-07-13T07:41:03;31.80;99.90
17774;DHT22;9011;33.236;-97.118;2023-07-13T07:43:32;31.80;99.90
17774;DHT22;9011;33.236;-97.118;2023-07-13T07:46:00;31.70;99.90
17774;DHT22;9011;33.236;-97.118;2023-07-13T07:48:29;31.70;99.90
17774;DHT22;9011;33.236;-97.118;2023-07-13T07:51:02;31.60;99.90
17774;DHT22;9011;33.236;-97.118;2023-07-13T07:53:31;31.50;99.90
17774;DHT22;9011;33.236;-97.118;2023-07-13T07:55:59;31.60;99.90
17774;DHT22;9011;33.236;-97.118;2023-07-13T07:58:27;31.50;99.90
17774;DHT22;9011;33.236;-97.118;2023-07-13T08:01:03;31.50;99.90
17774;DHT22;9011;33.236;-97.118;2023-07-13T08:03:32;31.50;99.90
17774;DHT22;9011;33.236;-97.118;2023-07-13T08:06:05;31.50;99.90
17774;DHT22;9011;33.236;-97.118;2023-07-13T08:08:35;31.40;99.90
17774;DHT22;9011;33.236;-97.118;2023-07-13T08:11:04;31.40;99.90
17774;DHT22;9011;33.236;-97.118;2023-07-13T08:13:33;31.40;99.90
17774;DHT22;9011;33.236;-97.118;2023-07-13T08:16:03;31.30;99.90
17774;DHT22;9011;33.236;-97.118;2023-07-13T08:18:32;31.30;99.90
17774;DHT22;9011;33.236;-97.118;2023-07-13T08:21:05;31.30;99.90
17774;DHT22;9011;33.236;-97.118;2023-07-13T08:23:34;31.20;99.90
17774;DHT22;9011;33.236;-97.118;2023-07-13T08:26:03;31.20;99.90
17774;DHT22;9011;33.236;-97.118;2023-07-13T08:28:32;31.20;99.90
17774;DHT22;9011;33.236;-97.118;2023-07-13T08:31:02;31.20;99.90
17774;DHT22;9011;33.236;-97.118;2023-07-13T08:33:30;31.10;99.90
17774;DHT22;9011;33.236;-97.118;2023-07-13T08:35:59;31.20;99.90
17774;DHT22;9011;33.236;-97.118;2023-07-13T08:38:29;31.10;99.90
17774;DHT22;9011;33.236;-97.118;2023-07-13T08:40:58;31.10;99.90
17774;DHT22;9011;33.236;-97.118;2023-07-13T08:43:28;31.10;99.90
17774;DHT22;9011;33.236;-97.118;2023-07-13T08:46:02;31.00;99.90
17774;DHT22;9011;33.236;-97.118;2023-07-13T08:48:36;30.90;99.90
17774;DHT22;9011;33.236;-97.118;2023-07-13T08:51:17;30.90;99.90
17774;DHT22;9011;33.236;-97.118;2023-07-13T08:53:56;30.80;99.90
17774;DHT22;9011;33.236;-97.118;2023-07-13T08:56:28;30.80;99.90
17774;DHT22;9011;33.236;-97.118;2023-07-13T08:59:00;30.80;99.90
17774;DHT22;9011;33.236;-97.118;2023-07-13T09:01:52;30.80;99.90
17774;DHT22;9011;33.236;-97.118;2023-07-13T09:04:25;30.70;99.90
17774;DHT22;9011;33.236;-97.118;2023-07-13T09:07:04;30.70;99.90
17774;DHT22;9011;33.236;-97.118;2023-07-13T09:09:45;30.70;99.90
17774;DHT22;9011;33.236;-97.118;2023-07-13T09:12:21;30.70;99.90
17774;DHT22;9011;33.236;-97.118;2023-07-13T09:14:57;30.70;99.90
17774;DHT22;9011;33.236;-97.118;2023-07-13T09:17:28;30.60;99.90
17774;DHT22;9011;33.236;-97.118;2023-07-13T09:20:00;30.60;99.90
17774;DHT22;9011;33.236;-97.118;2023-07-13T09:22:34;30.50;99.90
17774;DHT22;9011;33.236;-97.118;2023-07-13T09:25:18;30.60;99.90
17774;DHT22;9011;33.236;-97.118;2023-07-13T09:27:50;30.50;99.90
17774;DHT22;9011;33.236;-97.118;2023-07-13T09:30:27;30.50;99.90
17774;DHT22;9011;33.236;-97.118;2023-07-13T09:32:59;30.50;99.90
17774;DHT22;9011;33.236;-97.118;2023-07-13T09:35:29;30.30;99.90
17774;DHT22;9011;33.236;-97.118;2023-07-13T09:38:01;30.30;99.90
17774;DHT22;9011;33.236;-97.118;2023-07-13T09:40:44;30.30;99.90
17774;DHT22;9011;33.236;-97.118;2023-07-13T09:43:16;30.30;99.90
17774;DHT22;9011;33.236;-97.118;2023-07-13T09:45:46;30.20;99.90
17774;DHT22;9011;33.236;-97.118;2023-07-13T09:48:17;30.20;99.90
17774;DHT22;9011;33.236;-97.118;2023-07-13T09:50:46;30.20;99.90
17774;DHT22;9011;33.236;-97.118;2023-07-13T09:53:16;30.20;99.90
17774;DHT22;9011;33.236;-97.118;2023-07-13T09:55:48;30.10;99.90
17774;DHT22;9011;33.236;-97.118;2023-07-13T09:58:18;30.10;99.90
17774;DHT22;9011;33.236;-97.118;2023-07-13T10:00:56;30.10;99.90
17774;DHT22;9011;33.236;-97.118;2023-07-13T10:03:27;30.10;99.90
17774;DHT22;9011;33.236;-97.118;2023-07-13T10:06:09;30.00;99.90
17774;DHT22;9011;33.236;-97.118;2023-07-13T10:08:39;30.00;99.90
17774;DHT22;9011;33.236;-97.118;2023-07-13T10:11:16;30.00;99.90
17774;DHT22;9011;33.236;-97.118;2023-07-13T10:13:52;29.90;99.90
17774;DHT22;9011;33.236;-97.118;2023-07-13T10:16:22;29.90;99.90
17774;DHT22;9011;33.236;-97.118;2023-07-13T10:18:57;29.80;99.90
17774;DHT22;9011;33.236;-97.118;2023-07-13T10:21:33;29.80;99.90
17774;DHT22;9011;33.236;-97.118;2023-07-13T10:24:14;29.80;99.90
17774;DHT22;9011;33.236;-97.118;2023-07-13T10:26:51;29.80;99.90
17774;DHT22;9011;33.236;-97.118;2023-07-13T10:29:24;29.80;99.90
17774;DHT22;9011;33.236;-97.118;2023-07-13T10:31:54;29.80;99.90
17774;DHT22;9011;33.236;-97.118;2023-07-13T10:34:24;29.70;99.90
17774;DHT22;9011;33.236;-97.118;2023-07-13T10:36:52;29.70;99.90
17774;DHT22;9011;33.236;-97.118;2023-07-13T10:39:23;29.70;99.90
17774;DHT22;9011;33.236;-97.118;2023-07-13T10:41:57;29.70;99.90
17774;DHT22;9011;33.236;-97.118;2023-07-13T10:44:29;29.70;99.90
17774;DHT22;9011;33.236;-97.118;2023-07-13T10:46:59;29.60;99.90
17774;DHT22;9011;33.236;-97.118;2023-07-13T10:49:30;29.60;99.90
17774;DHT22;9011;33.236;-97.118;2023-07-13T10:51:59;29.60;99.90
17774;DHT22;9011;33.236;-97.118;2023-07-13T10:54:31;29.70;99.90
17774;DHT22;9011;33.236;-97.118;2023-07-13T10:57:17;29.50;99.90
17774;DHT22;9011;33.236;-97.118;2023-07-13T11:00:14;29.60;99.90
17774;DHT22;9011;33.236;-97.118;2023-07-13T11:02:42;29.50;99.90
17774;DHT22;9011;33.236;-97.118;2023-07-13T11:05:25;29.50;99.90
17774;DHT22;9011;33.236;-97.118;2023-07-13T11:08:03;29.50;99.90
17774;DHT22;9011;33.236;-97.118;2023-07-13T11:10:50;29.50;99.90
17774;DHT22;9011;33.236;-97.118;2023-07-13T11:13:57;29.40;99.90
17774;DHT22;9011;33.236;-97.118;2023-07-13T11:16:43;29.50;99.90
17774;DHT22;9011;33.236;-97.118;2023-07-13T11:19:39;29.40;99.90
17774;DHT22;9011;33.236;-97.118;2023-07-13T11:22:15;29.40;99.90
17774;DHT22;9011;33.236;-97.118;2023-07-13T11:24:58;29.40;99.90
17774;DHT22;9011;33.236;-97.118;2023-07-13T11:27:39;29.30;99.90
17774;DHT22;9011;33.236;-97.118;2023-07-13T11:30:34;29.30;99.90
17774;DHT22;9011;33.236;-97.118;2023-07-13T11:33:10;29.30;99.90
17774;DHT22;9011;33.236;-97.118;2023-07-13T11:35:51;29.30;99.90
17774;DHT22;9011;33.236;-97.118;2023-07-13T11:38:24;29.20;99.90
17774;DHT22;9011;33.236;-97.118;2023-07-13T11:40:56;29.10;99.90
17774;DHT22;9011;33.236;-97.118;2023-07-13T11:43:29;29.20;99.90
17774;DHT22;9011;33.236;-97.118;2023-07-13T11:46:14;29.20;99.90
17774;DHT22;9011;33.236;-97.118;2023-07-13T11:48:45;29.10;99.90
17774;DHT22;9011;33.236;-97.118;2023-07-13T11:51:20;29.00;99.90
17774;DHT22;9011;33.236;-97.118;2023-07-13T11:53:52;28.90;99.90
17774;DHT22;9011;33.236;-97.118;2023-07-13T11:56:23;28.90;99.90
17774;DHT22;9011;33.236;-97.118;2023-07-13T11:58:53;29.00;99.90
17774;DHT22;9011;33.236;-97.118;2023-07-13T12:01:26;28.90;99.90
17774;DHT22;9011;33.236;-97.118;2023-07-13T12:03:59;28.80;99.90
17774;DHT22;9011;33.236;-97.118;2023-07-13T12:06:29;28.90;99.90
17774;DHT22;9011;33.236;-97.118;2023-07-13T12:08:59;28.90;99.90
17774;DHT22;9011;33.236;-97.118;2023-07-13T12:11:30;28.80;99.90
17774;DHT22;9011;33.236;-97.118;2023-07-13T12:13:58;28.80;99.90
17774;DHT22;9011;33.236;-97.118;2023-07-13T12:16:30;28.90;99.90
17774;DHT22;9011;33.236;-97.118;2023-07-13T12:19:00;28.90;99.90
17774;DHT22;9011;33.236;-97.118;2023-07-13T12:21:36;28.80;99.90
17774;DHT22;9011;33.236;-97.118;2023-07-13T12:24:14;28.80;99.90
17774;DHT22;9011;33.236;-97.118;2023-07-13T12:26:43;28.90;99.90
17774;DHT22;9011;33.236;-97.118;2023-07-13T12:29:16;28.80;99.90
17774;DHT22;9011;33.236;-97.118;2023-07-13T12:31:48;28.70;99.90
17774;DHT22;9011;33.236;-97.118;2023-07-13T12:34:20;28.80;99.90
17774;DHT22;9011;33.236;-97.118;2023-07-13T12:36:50;28.70;99.90
17774;DHT22;9011;33.236;-97.118;2023-07-13T12:39:21;28.60;99.90
17774;DHT22;9011;33.236;-97.118;2023-07-13T12:41:51;28.70;99.90
17774;DHT22;9011;33.236;-97.118;2023-07-13T12:44:25;28.70;99.90
17774;DHT22;9011;33.236;-97.118;2023-07-13T12:46:58;28.80;99.90
17774;DHT22;9011;33.236;-97.118;2023-07-13T12:49:30;28.90;99.90
17774;DHT22;9011;33.236;-97.118;2023-07-13T12:52:02;28.80;99.90
17774;DHT22;9011;33.236;-97.118;2023-07-13T12:54:32;28.80;99.90
17774;DHT22;9011;33.236;-97.118;2023-07-13T12:57:01;28.70;99.90
17774;DHT22;9011;33.236;-97.118;2023-07-13T12:59:33;28.80;99.90
17774;DHT22;9011;33.236;-97.118;2023-07-13T13:02:21;28.90;99.90
17774;DHT22;9011;33.236;-97.118;2023-07-13T13:04:51;28.90;99.90
17774;DHT22;9011;33.236;-97.118;2023-07-13T13:07:21;28.80;99.90
17774;DHT22;9011;33.236;-97.118;2023-07-13T13:09:50;28.80;99.90
17774;DHT22;9011;33.236;-97.118;2023-07-13T13:12:20;28.80;99.90
17774;DHT22;9011;33.236;-97.118;2023-07-13T13:14:48;29.00;99.90
17774;DHT22;9011;33.236;-97.118;2023-07-13T13:17:29;28.90;99.90
17774;DHT22;9011;33.236;-97.118;2023-07-13T13:19:59;28.80;99.90
17774;DHT22;9011;33.236;-97.118;2023-07-13T13:22:27;28.80;99.90
17774;DHT22;9011;33.236;-97.118;2023-07-13T13:24:57;28.90;99.90
17774;DHT22;9011;33.236;-97.118;2023-07-13T13:27:26;28.90;99.90
17774;DHT22;9011;33.236;-97.118;2023-07-13T13:29:54;29.00;99.90
17774;DHT22;9011;33.236;-97.118;2023-07-13T13:32:24;29.00;99.90
17774;DHT22;9011;33.236;-97.118;2023-07-13T13:34:53;29.00;99.90
17774;DHT22;9011;33.236;-97.118;2023-07-13T13:37:23;29.00;99.90
17774;DHT22;9011;33.236;-97.118;2023-07-13T13:39:52;29.00;99.90
17774;DHT22;9011;33.236;-97.118;2023-07-13T13:42:22;29.20;99.90
17774;DHT22;9011;33.236;-97.118;2023-07-13T13:44:51;29.30;99.90
17774;DHT22;9011;33.236;-97.118;2023-07-13T13:47:29;29.30;99.90
17774;DHT22;9011;33.236;-97.118;2023-07-13T13:49:59;29.40;99.90
17774;DHT22;9011;33.236;-97.118;2023-07-13T13:52:28;29.50;99.90
17774;DHT22;9011;33.236;-97.118;2023-07-13T13:54:56;29.60;99.90
17774;DHT22;9011;33.236;-97.118;2023-07-13T13:57:25;29.60;99.90
17774;DHT22;9011;33.236;-97.118;2023-07-13T13:59:54;29.70;99.90
17774;DHT22;9011;33.236;-97.118;2023-07-13T14:02:25;29.80;99.90
17774;DHT22;9011;33.236;-97.118;2023-07-13T14:04:58;29.80;99.90
17774;DHT22;9011;33.236;-97.118;2023-07-13T14:07:27;29.70;99.90
17774;DHT22;9011;33.236;-97.118;2023-07-13T14:09:57;29.80;99.90
17774;DHT22;9011;33.236;-97.118;2023-07-13T14:12:26;29.80;99.90
17774;DHT22;9011;33.236;-97.118;2023-07-13T14:14:56;30.00;99.90
17774;DHT22;9011;33.236;-97.118;2023-07-13T14:17:26;30.10;99.90
17774;DHT22;9011;33.236;-97.118;2023-07-13T14:19:57;30.30;99.90
17774;DHT22;9011;33.236;-97.118;2023-07-13T14:22:26;30.40;99.90
17774;DHT22;9011;33.236;-97.118;2023-07-13T14:24:55;30.60;99.90
17774;DHT22;9011;33.236;-97.118;2023-07-13T14:27:25;30.50;99.90
17774;DHT22;9011;33.236;-97.118;2023-07-13T14:29:54;30.60;99.90
17774;DHT22;9011;33.236;-97.118;2023-07-13T14:32:22;30.60;99.90
17774;DHT22;9011;33.236;-97.118;2023-07-13T14:34:51;30.30;99.90
17774;DHT22;9011;33.236;-97.118;2023-07-13T14:37:21;30.20;99.90
17774;DHT22;9011;33.236;-97.118;2023-07-13T14:39:51;30.00;99.90
17774;DHT22;9011;33.236;-97.118;2023-07-13T14:42:20;30.00;99.90
17774;DHT22;9011;33.236;-97.118;2023-07-13T14:44:49;30.00;99.90
17774;DHT22;9011;33.236;-97.118;2023-07-13T14:47:18;30.00;99.90
17774;DHT22;9011;33.236;-97.118;2023-07-13T14:49:47;29.90;99.90
17774;DHT22;9011;33.236;-97.118;2023-07-13T14:52:17;30.00;99.90
17774;DHT22;9011;33.236;-97.118;2023-07-13T14:54:48;30.10;99.90
17774;DHT22;9011;33.236;-97.118;2023-07-13T14:57:18;30.20;99.90
17774;DHT22;9011;33.236;-97.118;2023-07-13T14:59:47;30.10;99.90
17774;DHT22;9011;33.236;-97.118;2023-07-13T15:02:19;30.10;99.90
17774;DHT22;9011;33.236;-97.118;2023-07-13T15:04:51;29.90;99.90
17774;DHT22;9011;33.236;-97.118;2023-07-13T15:07:19;29.90;99.90
17774;DHT22;9011;33.236;-97.118;2023-07-13T15:09:51;29.90;99.90
17774;DHT22;9011;33.236;-97.118;2023-07-13T15:12:21;29.90;99.90
17774;DHT22;9011;33.236;-97.118;2023-07-13T15:14:50;29.90;99.90
17774;DHT22;9011;33.236;-97.118;2023-07-13T15:17:34;30.10;99.90
17774;DHT22;9011;33.236;-97.118;2023-07-13T15:20:05;30.40;99.90
17774;DHT22;9011;33.236;-97.118;2023-07-13T15:22:36;30.60;99.90
17774;DHT22;9011;33.236;-97.118;2023-07-13T15:25:14;30.80;99.90
17774;DHT22;9011;33.236;-97.118;2023-07-13T15:27:43;31.10;99.90
17774;DHT22;9011;33.236;-97.118;2023-07-13T15:30:13;31.20;99.90
17774;DHT22;9011;33.236;-97.118;2023-07-13T15:32:42;31.50;99.90
17774;DHT22;9011;33.236;-97.118;2023-07-13T15:35:15;31.60;99.90
17774;DHT22;9011;33.236;-97.118;2023-07-13T15:37:44;31.80;99.90
17774;DHT22;9011;33.236;-97.118;2023-07-13T15:40:15;31.80;99.90